createdAt,value
2018-09-03T00:00:25.451Z,82.29
2018-09-03T00:02:18.944Z,83.44
2018-09-03T00:03:18.880Z,83.92
2018-09-03T00:05:12.216Z,83.53
2018-09-03T00:06:12.272Z,84.50
2018-09-03T00:08:05.697Z,84.50
2018-09-03T00:09:05.556Z,84.11
2018-09-03T00:10:58.971Z,84.98
2018-09-03T00:11:58.939Z,84.69
2018-09-03T00:13:52.362Z,84.01
2018-09-03T00:14:52.301Z,84.21
2018-09-03T00:16:45.832Z,85.27
2018-09-03T00:17:45.736Z,85.27
2018-09-03T00:19:39.825Z,85.27
2018-09-03T00:20:39.079Z,85.27
2018-09-03T00:22:32.408Z,85.75
2018-09-03T00:23:32.446Z,85.07
2018-09-03T00:25:25.821Z,85.36
2018-09-03T00:26:25.786Z,84.88
2018-09-03T00:28:18.736Z,84.69
2018-09-03T00:29:18.685Z,84.98
2018-09-03T00:31:11.773Z,85.94
2018-09-03T00:32:12.036Z,85.17
2018-09-03T00:34:05.540Z,85.55
2018-09-03T00:35:05.707Z,86.04
2018-09-03T00:36:59.828Z,84.21
2018-09-03T00:37:58.811Z,83.92
2018-09-03T00:39:52.191Z,84.30
2018-09-03T00:40:52.436Z,84.21
2018-09-03T00:42:45.657Z,85.84
2018-09-03T00:43:45.600Z,84.78
2018-09-03T00:45:38.978Z,85.94
2018-09-03T00:46:39.561Z,85.94
2018-09-03T00:48:32.341Z,84.98
2018-09-03T00:49:32.018Z,85.84
2018-09-03T00:51:25.726Z,85.65
2018-09-03T00:52:25.394Z,86.90
2018-09-03T00:54:20.114Z,86.13
2018-09-03T00:55:20.080Z,86.13
2018-09-03T00:57:13.450Z,86.71
2018-09-03T00:58:13.489Z,86.32
2018-09-03T01:00:06.787Z,86.90
2018-09-03T01:01:06.771Z,86.90
2018-09-03T01:03:00.193Z,87.29
2018-09-03T01:04:00.245Z,87.38
2018-09-03T01:05:53.599Z,87.09
2018-09-03T01:06:53.575Z,87.19
2018-09-03T01:08:46.425Z,88.44
2018-09-03T01:09:46.424Z,87.96
2018-09-03T01:11:39.596Z,88.24
2018-09-03T01:12:39.289Z,88.24
2018-09-03T01:14:32.758Z,88.92
2018-09-03T01:15:32.622Z,88.87
2018-09-03T01:17:26.635Z,89.01
2018-09-03T01:18:25.507Z,89.30
2018-09-03T01:20:19.275Z,88.73
2018-09-03T01:21:18.886Z,89.11
2018-09-03T01:23:12.069Z,89.69
2018-09-03T01:24:12.338Z,90.36
2018-09-03T01:26:05.989Z,90.17
2018-09-03T01:27:06.006Z,89.88
2018-09-03T01:28:58.456Z,90.94
2018-09-03T01:29:58.348Z,91.03
2018-09-03T01:31:52.376Z,90.84
2018-09-03T01:32:52.255Z,92.05
2018-09-03T01:34:45.641Z,92.57
2018-09-03T01:35:45.657Z,91.99
2018-09-03T01:37:39.199Z,93.58
2018-09-03T01:38:38.550Z,93.63
2018-09-03T01:40:31.985Z,94.64
2018-09-03T01:41:31.861Z,94.26
2018-09-03T01:43:24.877Z,94.83
2018-09-03T01:44:24.480Z,96.08
2018-09-03T01:46:18.181Z,96.66
2018-09-03T01:47:17.836Z,97.81
2018-09-03T01:49:11.245Z,97.62
2018-09-03T01:50:11.567Z,97.04
2018-09-03T01:52:04.372Z,98.00
2018-09-03T01:53:04.332Z,98.00
2018-09-03T01:54:57.765Z,98.86
2018-09-03T01:55:57.686Z,99.06
2018-09-03T01:57:51.165Z,98.58
2018-09-03T01:58:50.807Z,98.19
2018-09-03T02:00:44.063Z,98.58
2018-09-03T02:01:44.012Z,99.15
2018-09-03T02:03:36.844Z,99.54
2018-09-03T02:04:36.548Z,98.68
2018-09-03T02:06:30.265Z,97.24
2018-09-03T02:07:29.958Z,96.85
2018-09-03T02:09:22.941Z,96.94
2018-09-03T02:10:23.079Z,97.62
2018-09-03T02:12:17.250Z,97.42
2018-09-03T02:13:16.544Z,97.71
2018-09-03T02:15:09.968Z,98.86
2018-09-03T02:16:09.829Z,98.96
2018-09-03T02:18:03.822Z,99.35
2018-09-03T02:19:02.950Z,99.25
2018-09-03T02:20:56.201Z,99.54
2018-09-03T02:21:55.777Z,99.99
2018-09-03T02:23:51.070Z,98.96
2018-09-03T02:24:49.195Z,99.99
2018-09-03T02:26:42.884Z,99.99
2018-09-03T02:27:42.840Z,99.83
2018-09-03T02:29:36.243Z,99.99
2018-09-03T02:30:35.915Z,99.99
2018-09-03T02:32:29.675Z,99.99
2018-09-03T02:33:29.662Z,99.99
2018-09-03T02:35:22.999Z,99.99
2018-09-03T02:36:22.640Z,99.99
2018-09-03T02:38:16.385Z,99.99
2018-09-03T02:39:16.327Z,99.99
2018-09-03T02:41:10.021Z,99.99
2018-09-03T02:42:09.737Z,99.99
2018-09-03T02:44:02.788Z,99.99
2018-09-03T02:45:03.121Z,99.99
2018-09-03T02:46:57.248Z,99.99
2018-09-03T02:47:55.977Z,99.99
2018-09-03T02:49:48.896Z,99.99
2018-09-03T02:50:48.498Z,99.99
2018-09-03T02:52:41.837Z,99.99
2018-09-03T02:53:41.712Z,99.99
2018-09-03T02:55:36.157Z,99.99
2018-09-03T02:56:35.769Z,99.99
2018-09-03T02:58:32.572Z,99.99
2018-09-03T02:59:29.491Z,99.99
2018-09-03T03:01:22.845Z,99.99
2018-09-03T03:02:22.857Z,99.99
2018-09-03T03:04:18.667Z,99.99
2018-09-03T03:05:18.397Z,99.99
2018-09-03T03:07:12.053Z,99.99
2018-09-03T03:08:12.119Z,99.99
2018-09-03T03:10:04.736Z,99.99
2018-09-03T03:11:05.024Z,99.99
2018-09-03T03:12:58.360Z,99.99
2018-09-03T03:13:58.361Z,99.99
2018-09-03T03:15:51.002Z,99.99
2018-09-03T03:16:51.240Z,99.99
2018-09-03T03:18:44.598Z,99.99
2018-09-03T03:19:44.622Z,99.99
2018-09-03T03:21:37.440Z,99.99
2018-09-03T03:22:37.481Z,99.99
2018-09-03T03:24:30.879Z,99.99
2018-09-03T03:25:30.790Z,99.99
2018-09-03T03:27:23.717Z,99.99
2018-09-03T03:28:23.689Z,99.99
2018-09-03T03:30:17.217Z,99.99
2018-09-03T03:31:17.092Z,99.99
2018-09-03T03:33:10.465Z,99.99
2018-09-03T03:34:10.498Z,99.99
2018-09-03T03:36:03.818Z,99.99
2018-09-03T03:37:03.849Z,99.99
2018-09-03T03:38:58.295Z,99.99
2018-09-03T03:39:57.891Z,99.99
2018-09-03T03:41:51.563Z,99.99
2018-09-03T03:42:51.228Z,99.99
2018-09-03T03:44:44.955Z,99.99
2018-09-03T03:45:44.627Z,99.99
2018-09-03T03:47:38.339Z,99.99
2018-09-03T03:48:38.004Z,99.99
2018-09-03T03:50:31.204Z,99.99
2018-09-03T03:51:31.171Z,99.99
2018-09-03T03:53:24.164Z,99.99
2018-09-03T03:54:24.032Z,99.99
2018-09-03T03:56:16.904Z,99.99
2018-09-03T03:57:16.654Z,99.99
2018-09-03T03:59:10.330Z,99.99
2018-09-03T04:00:10.037Z,99.99
2018-09-03T04:02:03.809Z,99.99
2018-09-03T04:03:03.678Z,99.99
2018-09-03T04:04:57.058Z,99.99
2018-09-03T04:05:57.308Z,99.99
2018-09-03T04:07:50.502Z,99.99
2018-09-03T04:08:49.932Z,99.99
2018-09-03T04:10:43.832Z,99.99
2018-09-03T04:11:43.276Z,99.99
2018-09-03T04:13:35.974Z,99.99
2018-09-03T04:14:36.174Z,99.99
2018-09-03T04:16:29.158Z,99.99
2018-09-03T04:17:29.215Z,99.99
2018-09-03T04:19:24.073Z,99.99
2018-09-03T04:20:22.189Z,99.99
2018-09-03T04:22:16.475Z,99.99
2018-09-03T04:23:15.959Z,99.99
2018-09-03T04:25:08.730Z,99.99
2018-09-03T04:26:08.671Z,99.99
2018-09-03T04:28:02.107Z,99.99
2018-09-03T04:29:02.086Z,99.99
2018-09-03T04:30:56.558Z,99.99
2018-09-03T04:31:56.040Z,99.99
2018-09-03T04:33:49.433Z,99.99
2018-09-03T04:34:49.434Z,99.99
2018-09-03T04:36:42.844Z,99.99
2018-09-03T04:37:42.774Z,99.99
2018-09-03T04:39:36.194Z,99.99
2018-09-03T04:40:35.888Z,99.99
2018-09-03T04:42:29.266Z,99.99
2018-09-03T04:43:29.513Z,99.99
2018-09-03T04:45:22.466Z,99.99
2018-09-03T04:46:22.409Z,99.99
2018-09-03T04:48:16.535Z,99.99
2018-09-03T04:49:15.761Z,99.99
2018-09-03T04:51:08.940Z,99.99
2018-09-03T04:52:08.893Z,99.99
2018-09-03T04:54:02.090Z,99.99
2018-09-03T04:55:02.351Z,99.99
2018-09-03T04:56:55.148Z,99.99
2018-09-03T04:57:55.158Z,99.99
2018-09-03T04:59:48.809Z,99.99
2018-09-03T05:00:48.488Z,99.99
2018-09-03T05:02:42.174Z,99.99
2018-09-03T05:03:41.855Z,99.99
2018-09-03T05:05:35.443Z,99.99
2018-09-03T05:06:35.222Z,99.99
2018-09-03T05:08:28.108Z,99.99
2018-09-03T05:09:28.075Z,99.99
2018-09-03T05:11:21.522Z,99.99
2018-09-03T05:12:21.459Z,99.99
2018-09-03T05:14:15.135Z,99.99
2018-09-03T05:15:14.912Z,99.99
2018-09-03T05:17:07.930Z,99.99
2018-09-03T05:18:07.713Z,99.99
2018-09-03T05:20:01.123Z,99.99
2018-09-03T05:21:01.090Z,99.99
2018-09-03T05:22:54.806Z,99.99
2018-09-03T05:23:54.499Z,99.99
2018-09-03T05:25:47.468Z,99.99
2018-09-03T05:26:47.478Z,99.99
2018-09-03T05:28:42.658Z,99.99
2018-09-03T05:29:41.085Z,99.99
2018-09-03T05:31:34.539Z,99.99
2018-09-03T05:32:35.673Z,99.99
2018-09-03T05:34:28.149Z,99.99
2018-09-03T05:35:28.043Z,99.99
2018-09-03T05:37:21.408Z,99.99
2018-09-03T05:38:22.886Z,99.99
2018-09-03T05:40:17.307Z,99.99
2018-09-03T05:41:17.092Z,99.99
2018-09-03T05:43:12.129Z,99.99
2018-09-03T05:44:11.357Z,99.99
2018-09-03T05:46:05.163Z,99.99
2018-09-03T05:47:04.708Z,99.99
2018-09-03T05:48:57.369Z,99.99
2018-09-03T05:49:57.334Z,99.99
2018-09-03T05:51:51.848Z,99.99
2018-09-03T05:52:51.705Z,99.99
2018-09-03T05:54:45.173Z,99.99
2018-09-03T05:55:45.416Z,99.99
2018-09-03T05:57:37.686Z,99.99
2018-09-03T05:58:45.071Z,99.99
2018-09-03T06:00:30.871Z,99.99
2018-09-03T06:01:40.273Z,99.99
2018-09-03T06:03:26.610Z,99.99
2018-09-03T06:04:25.726Z,99.99
2018-09-03T06:06:20.230Z,99.99
2018-09-03T06:07:20.095Z,99.99
2018-09-03T06:09:14.279Z,99.99
2018-09-03T06:10:13.525Z,99.99
2018-09-03T06:12:06.661Z,99.99
2018-09-03T06:13:06.815Z,99.99
2018-09-03T06:15:50.381Z,99.99
2018-09-03T06:16:50.899Z,99.99
2018-09-03T06:18:42.412Z,99.99
2018-09-03T06:19:43.380Z,99.99
2018-09-03T06:21:39.451Z,99.78
2018-09-03T06:22:37.718Z,98.72
2018-09-03T06:24:31.922Z,98.39
2018-09-03T06:25:31.316Z,96.94
2018-09-03T06:27:24.234Z,96.75
2018-09-03T06:28:25.066Z,97.04
2018-09-03T06:30:18.821Z,96.56
2018-09-03T06:31:17.669Z,95.89
2018-09-03T06:33:12.071Z,95.89
2018-09-03T06:34:12.207Z,95.21
2018-09-03T06:36:05.402Z,94.73
2018-09-03T06:37:03.688Z,95.31
2018-09-03T06:38:58.938Z,94.44
2018-09-03T06:39:57.586Z,94.78
2018-09-03T06:41:51.816Z,93.52
2018-09-03T06:42:50.688Z,93.62
2018-09-03T06:44:44.759Z,93.57
2018-09-03T06:45:44.055Z,94.49
2018-09-03T06:47:40.651Z,95.89
2018-09-03T06:48:37.035Z,94.59
2018-09-03T06:50:32.024Z,93.52
2018-09-03T06:51:31.530Z,93.91
2018-09-03T06:53:25.391Z,92.66
2018-09-03T06:54:24.026Z,92.08
2018-09-03T06:56:18.304Z,92.08
2018-09-03T06:57:17.892Z,92.18
2018-09-03T06:59:09.882Z,92.18
2018-09-03T07:00:09.411Z,92.47
2018-09-03T07:02:02.659Z,92.37
2018-09-03T07:03:02.584Z,92.76
2018-09-03T07:04:55.561Z,92.37
2018-09-03T07:05:55.755Z,93.72
2018-09-03T07:07:48.873Z,94.59
2018-09-03T07:08:49.431Z,94.39
2018-09-03T07:10:44.413Z,93.14
2018-09-03T07:11:42.012Z,93.33
2018-09-03T07:13:35.682Z,91.55
2018-09-03T07:14:37.881Z,90.25
2018-09-03T07:16:29.084Z,89.81
2018-09-03T07:17:29.080Z,89.62
2018-09-03T07:19:23.057Z,89.62
2018-09-03T07:20:22.101Z,89.33
2018-09-03T07:22:19.342Z,88.85
2018-09-03T07:23:18.388Z,89.14
2018-09-03T07:25:12.302Z,88.08
2018-09-03T07:26:11.791Z,88.08
2018-09-03T07:28:07.244Z,88.56
2018-09-03T07:29:05.175Z,88.95
2018-09-03T07:30:59.618Z,88.95
2018-09-03T07:31:58.097Z,89.77
2018-09-03T07:33:53.063Z,90.83
2018-09-03T07:34:53.096Z,90.64
2018-09-03T07:36:45.888Z,91.60
2018-09-03T07:37:45.540Z,92.08
2018-09-03T07:39:39.378Z,92.08
2018-09-03T07:40:39.290Z,93.24
2018-09-03T07:42:33.654Z,93.38
2018-09-03T07:43:33.652Z,93.38
2018-09-03T07:45:27.534Z,93.00
2018-09-03T07:46:27.013Z,93.19
2018-09-03T07:48:21.485Z,92.22
2018-09-03T07:49:21.045Z,93.87
2018-09-03T07:51:15.353Z,95.31
2018-09-03T07:52:14.773Z,95.02
2018-09-03T07:54:08.790Z,95.02
2018-09-03T07:55:08.914Z,95.21
2018-09-03T07:57:06.666Z,94.64
2018-09-03T07:58:04.658Z,94.54
2018-09-03T08:00:01.171Z,94.15
2018-09-03T08:00:57.715Z,94.01
2018-09-03T08:02:54.021Z,93.04
2018-09-03T08:03:53.984Z,92.18
2018-09-03T08:05:47.369Z,91.26
2018-09-03T08:06:47.008Z,91.26
2018-09-03T08:08:40.775Z,90.10
2018-09-03T08:09:40.396Z,89.91
2018-09-03T08:11:34.164Z,88.08
2018-09-03T08:12:34.117Z,87.30
2018-09-03T08:14:27.523Z,87.26
2018-09-03T08:15:27.176Z,86.96
2018-09-03T08:17:20.912Z,85.42
2018-09-03T08:18:20.543Z,84.94
2018-09-03T08:20:14.883Z,84.27
2018-09-03T08:21:15.869Z,84.11
2018-09-03T08:23:08.402Z,83.73
2018-09-03T08:24:06.821Z,83.53
2018-09-03T08:26:04.306Z,83.25
2018-09-03T08:27:00.532Z,82.76
2018-09-03T08:28:53.981Z,83.59
2018-09-03T08:29:55.460Z,83.40
2018-09-03T08:31:48.193Z,82.82
2018-09-03T08:32:48.172Z,83.69
2018-09-03T08:34:41.539Z,84.27
2018-09-03T08:35:41.587Z,84.90
2018-09-03T08:37:35.522Z,85.28
2018-09-03T08:38:34.556Z,86.25
2018-09-03T08:40:29.306Z,86.73
2018-09-03T08:41:31.902Z,85.77
2018-09-03T08:43:22.759Z,85.33
2018-09-03T08:44:22.662Z,85.33
2018-09-03T08:46:16.070Z,85.03
2018-09-03T08:47:16.026Z,84.55
2018-09-03T08:49:16.188Z,84.07
2018-09-03T08:50:22.747Z,84.07
2018-09-03T08:52:27.359Z,83.40
2018-09-03T08:53:28.379Z,83.25
2018-09-03T08:55:21.999Z,82.48
2018-09-03T08:56:21.677Z,82.18
2018-09-03T08:58:15.274Z,81.65
2018-09-03T08:59:14.692Z,81.74
2018-09-03T09:01:08.124Z,80.97
2018-09-03T09:02:08.509Z,80.87
2018-09-03T09:04:01.215Z,80.39
2018-09-03T09:05:00.548Z,80.39
2018-09-03T09:06:55.135Z,80.30
2018-09-03T09:07:54.576Z,80.30
2018-09-03T09:09:47.341Z,81.22
2018-09-03T09:10:47.061Z,81.90
2018-09-03T09:12:40.860Z,82.18
2018-09-03T09:13:42.262Z,82.09
2018-09-03T09:15:34.674Z,81.90
2018-09-03T09:16:33.752Z,82.09
2018-09-03T09:18:29.048Z,82.28
2018-09-03T09:19:29.341Z,82.18
2018-09-03T09:21:23.917Z,82.48
2018-09-03T09:22:22.852Z,81.99
2018-09-03T09:24:17.279Z,82.38
2018-09-03T09:25:16.947Z,82.09
2018-09-03T09:27:11.246Z,81.65
2018-09-03T09:28:10.382Z,81.65
2018-09-03T09:30:07.197Z,80.58
2018-09-03T09:31:03.852Z,80.30
2018-09-03T09:32:57.160Z,80.10
2018-09-03T09:33:56.524Z,80.00
2018-09-03T09:35:49.157Z,80.20
2018-09-03T09:36:50.337Z,80.00
2018-09-03T09:38:42.097Z,79.24
2018-09-03T09:39:42.215Z,79.43
2018-09-03T09:41:40.560Z,78.89
2018-09-03T09:42:39.833Z,78.59
2018-09-03T09:44:32.882Z,79.17
2018-09-03T09:45:32.547Z,79.66
2018-09-03T09:47:26.271Z,78.59
2018-09-03T09:48:26.268Z,78.50
2018-09-03T09:50:19.696Z,78.15
2018-09-03T09:51:19.317Z,78.31
2018-09-03T09:53:14.111Z,77.92
2018-09-03T09:54:12.667Z,77.86
2018-09-03T09:56:11.699Z,77.48
2018-09-03T09:57:08.177Z,77.57
2018-09-03T09:59:09.514Z,76.80
2018-09-03T10:00:02.082Z,76.84
2018-09-03T10:01:55.500Z,76.16
2018-09-03T10:02:55.119Z,75.58
2018-09-03T10:04:49.500Z,74.71
2018-09-03T10:05:49.995Z,75.29
2018-09-03T10:07:43.031Z,76.26
2018-09-03T10:08:43.864Z,75.78
2018-09-03T10:10:36.267Z,75.84
2018-09-03T10:11:36.247Z,75.74
2018-09-03T10:13:30.221Z,75.10
2018-09-03T10:14:28.823Z,74.90
2018-09-03T10:16:22.599Z,75.29
2018-09-03T10:17:22.623Z,75.58
2018-09-03T10:19:21.261Z,76.16
2018-09-03T10:20:16.568Z,75.78
2018-09-03T10:22:10.370Z,75.29
2018-09-03T10:23:10.031Z,75.00
2018-09-03T10:25:03.926Z,74.17
2018-09-03T10:26:03.058Z,73.68
2018-09-03T10:27:56.851Z,73.49
2018-09-03T10:28:56.389Z,73.78
2018-09-03T10:30:49.864Z,74.55
2018-09-03T10:31:49.812Z,75.23
2018-09-03T10:33:43.780Z,74.36
2018-09-03T10:34:43.150Z,74.85
2018-09-03T10:36:46.640Z,74.81
2018-09-03T10:37:36.559Z,75.00
2018-09-03T10:39:30.993Z,74.23
2018-09-03T10:40:29.984Z,74.04
2018-09-03T10:42:23.387Z,74.81
2018-09-03T10:43:22.967Z,74.90
2018-09-03T10:45:16.884Z,75.10
2018-09-03T10:46:17.271Z,75.29
2018-09-03T10:48:10.217Z,75.78
2018-09-03T10:49:09.764Z,75.87
2018-09-03T10:51:04.178Z,75.68
2018-09-03T10:52:03.937Z,75.29
2018-09-03T10:53:56.572Z,75.20
2018-09-03T10:54:57.111Z,74.90
2018-09-03T10:56:50.121Z,75.00
2018-09-03T10:57:49.199Z,74.62
2018-09-03T10:59:51.068Z,74.90
2018-09-03T11:00:49.909Z,75.20
2018-09-03T11:02:43.390Z,73.55
2018-09-03T11:03:43.343Z,73.36
2018-09-03T11:05:43.357Z,73.59
2018-09-03T11:06:36.319Z,72.62
2018-09-03T11:08:30.246Z,72.04
2018-09-03T11:09:29.548Z,72.52
2018-09-03T11:11:22.988Z,71.94
2018-09-03T11:12:23.513Z,72.04
2018-09-03T11:14:16.477Z,72.14
2018-09-03T11:15:16.388Z,71.84
2018-09-03T11:17:09.794Z,71.94
2018-09-03T11:18:09.714Z,71.84
2018-09-03T11:20:06.266Z,70.92
2018-09-03T11:21:02.775Z,71.30
2018-09-03T11:22:56.551Z,71.40
2018-09-03T11:23:56.605Z,71.59
2018-09-03T11:25:49.996Z,70.62
2018-09-03T11:26:49.940Z,69.75
2018-09-03T11:28:43.383Z,70.14
2018-09-03T11:29:43.369Z,69.56
2018-09-03T11:31:37.268Z,69.59
2018-09-03T11:32:36.322Z,69.79
2018-09-03T11:34:31.720Z,70.08
2018-09-03T11:35:30.229Z,69.89
2018-09-03T11:37:23.152Z,70.37
2018-09-03T11:38:22.781Z,70.18
2018-09-03T11:40:17.118Z,69.89
2018-09-03T11:41:17.067Z,69.40
2018-09-03T11:43:12.405Z,69.01
2018-09-03T11:44:11.919Z,69.53
2018-09-03T11:46:11.842Z,69.11
2018-09-03T11:47:05.328Z,69.15
2018-09-03T11:48:59.776Z,68.66
2018-09-03T11:49:58.654Z,68.47
2018-09-03T11:51:52.088Z,67.60
2018-09-03T11:52:51.225Z,67.69
2018-09-03T11:54:47.671Z,67.79
2018-09-03T11:55:43.739Z,68.08
2018-09-03T11:57:37.446Z,67.69
2018-09-03T11:58:37.454Z,68.47
2018-09-03T12:00:30.951Z,68.56
2018-09-03T12:01:30.838Z,68.47
2018-09-03T12:03:30.327Z,67.92
2018-09-03T12:04:25.289Z,67.72
2018-09-03T12:06:33.297Z,68.21
2018-09-03T12:07:20.018Z,68.21
2018-09-03T12:09:12.278Z,68.12
2018-09-03T12:10:12.443Z,67.63
2018-09-03T12:12:05.618Z,67.44
2018-09-03T12:14:18.978Z,67.72
2018-09-03T12:15:18.986Z,67.34
2018-09-03T12:17:17.290Z,67.40
2018-09-03T12:18:17.734Z,67.98
2018-09-03T12:20:10.589Z,68.08
2018-09-03T12:21:10.277Z,67.79
2018-09-03T12:23:04.248Z,68.18
2018-09-03T12:24:04.555Z,68.76
2018-09-03T12:25:57.404Z,67.50
2018-09-03T12:26:57.081Z,68.27
2018-09-03T12:28:50.900Z,68.27
2018-09-03T12:29:50.879Z,68.27
2018-09-03T12:31:44.364Z,68.18
2018-09-03T12:32:43.967Z,68.27
2018-09-03T12:34:40.532Z,69.11
2018-09-03T12:35:37.391Z,69.50
2018-09-03T12:37:32.258Z,69.31
2018-09-03T12:38:30.649Z,69.40
2018-09-03T12:40:37.094Z,69.40
2018-09-03T12:41:24.066Z,69.01
2018-09-03T12:43:17.513Z,69.59
2018-09-03T12:45:31.911Z,69.59
2018-09-03T12:47:44.427Z,69.31
2018-09-03T12:49:57.868Z,69.98
2018-09-03T12:50:57.763Z,69.95
2018-09-03T12:52:51.258Z,70.08
2018-09-03T12:55:10.734Z,70.04
2018-09-03T12:56:10.099Z,70.14
2018-09-03T12:58:03.490Z,70.53
2018-09-03T12:59:03.470Z,70.53
2018-09-03T13:00:56.917Z,70.82
2018-09-03T13:01:56.932Z,70.53
2018-09-03T13:03:50.846Z,71.40
2018-09-03T13:04:49.950Z,71.40
2018-09-03T13:06:43.736Z,71.98
2018-09-03T13:07:43.635Z,71.50
2018-09-03T13:09:53.198Z,71.78
2018-09-03T13:10:42.351Z,71.98
2018-09-03T13:12:42.850Z,71.98
2018-09-03T13:13:42.864Z,71.88
2018-09-03T13:15:36.149Z,71.50
2018-09-03T13:16:35.833Z,71.69
2018-09-03T13:18:29.594Z,71.82
2018-09-03T13:19:29.162Z,71.53
2018-09-03T13:21:22.957Z,71.82
2018-09-03T13:22:23.435Z,71.72
2018-09-03T13:24:15.870Z,71.72
2018-09-03T13:25:15.717Z,71.24
2018-09-03T13:27:08.718Z,71.62
2018-09-03T13:28:08.328Z,71.53
2018-09-03T13:30:02.041Z,72.11
2018-09-03T13:31:01.707Z,71.82
2018-09-03T13:32:55.493Z,71.14
2018-09-03T13:33:55.573Z,71.40
2018-09-03T13:35:50.972Z,71.88
2018-09-03T13:36:49.873Z,71.69
2018-09-03T13:38:43.295Z,71.40
2018-09-03T13:39:42.910Z,71.30
2018-09-03T13:41:37.887Z,72.36
2018-09-03T13:42:36.714Z,72.08
2018-09-03T13:44:29.971Z,72.17
2018-09-03T13:45:31.557Z,72.56
2018-09-03T13:47:23.528Z,73.10
2018-09-03T13:48:23.108Z,73.30
2018-09-03T13:50:16.937Z,73.59
2018-09-03T13:51:16.912Z,73.68
2018-09-03T13:53:12.328Z,73.59
2018-09-03T13:54:11.247Z,74.21
2018-09-03T13:56:07.321Z,74.11
2018-09-03T13:57:05.040Z,73.14
2018-09-03T13:58:58.459Z,73.14
2018-09-03T13:59:58.104Z,73.78
2018-09-03T14:01:51.901Z,73.04
2018-09-03T14:02:52.124Z,73.30
2018-09-03T14:04:49.302Z,73.30
2018-09-03T14:05:44.455Z,73.43
2018-09-03T14:07:37.306Z,74.49
2018-09-03T14:08:37.726Z,74.75
2018-09-03T14:10:31.172Z,74.46
2018-09-03T14:11:31.026Z,74.07
2018-09-03T14:13:26.138Z,73.88
2018-09-03T14:14:25.034Z,74.65
2018-09-03T14:16:18.953Z,75.33
2018-09-03T14:17:18.810Z,74.94
2018-09-03T14:19:12.305Z,74.94
2018-09-03T14:20:12.786Z,75.04
2018-09-03T14:22:05.621Z,74.46
2018-09-03T14:23:05.645Z,74.27
2018-09-03T14:24:59.106Z,75.04
2018-09-03T14:25:58.505Z,74.65
2018-09-03T14:27:51.524Z,75.33
2018-09-03T14:28:51.690Z,76.10
2018-09-03T14:30:44.848Z,75.71
2018-09-03T14:31:44.448Z,75.04
2018-09-03T14:33:39.813Z,74.94
2018-09-03T14:34:37.903Z,74.94
2018-09-03T14:36:34.392Z,74.75
2018-09-03T14:37:31.208Z,74.46
2018-09-03T14:39:24.969Z,74.79
2018-09-03T14:40:24.987Z,74.79
2018-09-03T14:42:18.397Z,74.59
2018-09-03T14:43:18.367Z,73.82
2018-09-03T14:45:11.312Z,74.17
2018-09-03T14:46:11.275Z,73.68
2018-09-03T14:48:06.316Z,74.11
2018-09-03T14:49:05.643Z,74.07
2018-09-03T14:50:59.109Z,73.82
2018-09-03T14:51:58.963Z,74.46
2018-09-03T14:53:53.065Z,74.17
2018-09-03T14:54:53.004Z,74.17
2018-09-03T14:56:46.364Z,75.04
2018-09-03T14:57:46.870Z,75.04
2018-09-03T14:59:39.642Z,75.04
2018-09-03T15:00:39.795Z,74.94
2018-09-03T15:02:33.139Z,76.20
2018-09-03T15:03:33.046Z,75.62
2018-09-03T15:05:26.577Z,76.20
2018-09-03T15:06:26.416Z,76.26
2018-09-03T15:08:22.989Z,76.39
2018-09-03T15:09:22.442Z,76.26
2018-09-03T15:11:15.782Z,75.81
2018-09-03T15:12:16.022Z,76.68
2018-09-03T15:14:11.258Z,76.39
2018-09-03T15:15:11.848Z,76.45
2018-09-03T15:17:05.184Z,76.93
2018-09-03T15:18:04.671Z,77.03
2018-09-03T15:19:59.297Z,77.13
2018-09-03T15:22:12.765Z,77.61
2018-09-03T15:23:14.855Z,77.51
2018-09-03T15:25:05.436Z,77.61
2018-09-03T15:26:04.953Z,77.51
2018-09-03T15:27:57.972Z,78.00
2018-09-03T15:28:58.358Z,77.90
2018-09-03T15:30:54.716Z,78.29
2018-09-03T15:31:53.266Z,78.87
2018-09-03T15:33:47.778Z,78.96
2018-09-03T15:34:47.764Z,79.16
2018-09-03T15:36:42.252Z,79.54
2018-09-03T15:37:41.018Z,79.31
2018-09-03T15:39:37.051Z,80.28
2018-09-03T15:40:34.010Z,80.18
2018-09-03T15:42:27.146Z,80.47
2018-09-03T15:43:27.044Z,80.28
2018-09-03T15:45:20.050Z,81.34
2018-09-03T15:46:19.979Z,81.24
2018-09-03T15:48:13.679Z,80.86
2018-09-03T15:49:13.375Z,80.86
2018-09-03T15:51:07.884Z,80.66
2018-09-03T15:52:07.752Z,81.05
2018-09-03T15:54:00.735Z,82.31
2018-09-03T15:55:00.998Z,82.31
2018-09-03T15:56:54.207Z,83.04
2018-09-03T15:57:54.612Z,83.04
2018-09-03T15:59:47.851Z,83.62
2018-09-03T16:00:48.081Z,84.68
2018-09-03T16:02:41.239Z,84.68
2018-09-03T16:03:40.920Z,85.64
2018-09-03T16:05:35.208Z,85.84
2018-09-03T16:07:49.548Z,85.64
2018-09-03T16:08:48.528Z,85.80
2018-09-03T16:10:42.078Z,86.08
2018-09-03T16:13:00.813Z,86.38
2018-09-03T16:13:56.678Z,85.89
2018-09-03T16:15:51.582Z,86.13
2018-09-03T16:16:49.549Z,86.08
2018-09-03T16:18:42.452Z,86.47
2018-09-03T16:19:42.408Z,87.00
2018-09-03T16:21:36.795Z,86.76
2018-09-03T16:22:37.610Z,87.05
2018-09-03T16:24:28.978Z,87.73
2018-09-03T16:25:30.308Z,88.21
2018-09-03T16:27:22.408Z,88.50
2018-09-03T16:28:21.945Z,88.89
2018-09-03T16:30:16.167Z,89.75
2018-09-03T16:31:15.266Z,89.65
2018-09-03T16:33:10.796Z,91.11
2018-09-03T16:34:12.417Z,92.16
2018-09-03T16:36:02.478Z,92.84
2018-09-03T16:37:02.068Z,93.90
2018-09-03T16:38:55.113Z,96.03
2018-09-03T16:39:55.243Z,96.80
2018-09-03T16:41:48.656Z,96.89
2018-09-03T16:42:48.341Z,97.19
2018-09-03T16:44:42.575Z,98.83
2018-09-03T16:45:41.894Z,99.99
2018-09-03T16:47:35.636Z,99.99
2018-09-03T16:48:35.168Z,99.99
2018-09-03T16:50:28.902Z,99.99
2018-09-03T16:51:28.539Z,99.99
2018-09-03T16:53:22.330Z,99.99
2018-09-03T16:54:22.215Z,99.99
2018-09-03T16:56:15.290Z,99.99
2018-09-03T16:57:15.193Z,99.99
2018-09-03T16:59:09.158Z,99.99
2018-09-03T17:00:08.258Z,99.99
2018-09-03T17:02:02.024Z,99.99
2018-09-03T17:03:01.611Z,99.99
2018-09-03T17:04:56.047Z,99.99
2018-09-03T17:05:54.597Z,99.99
2018-09-03T17:07:47.549Z,99.99
2018-09-03T17:08:47.458Z,99.99
2018-09-03T17:10:41.430Z,99.99
2018-09-03T17:11:41.426Z,99.99
2018-09-03T17:13:34.637Z,99.99
2018-09-03T17:14:34.223Z,99.99
2018-09-03T17:16:27.400Z,99.99
2018-09-03T17:17:27.197Z,99.99
2018-09-03T17:19:20.021Z,99.99
2018-09-03T17:20:20.024Z,99.99
2018-09-03T17:22:13.663Z,99.99
2018-09-03T17:23:13.364Z,99.99
2018-09-03T17:25:07.151Z,99.99
2018-09-03T17:26:07.364Z,99.99
2018-09-03T17:28:00.542Z,99.99
2018-09-03T17:29:00.131Z,99.99
2018-09-03T17:30:53.534Z,99.99
2018-09-03T17:31:53.512Z,99.99
2018-09-03T17:33:48.113Z,99.99
2018-09-03T17:34:47.914Z,99.99
2018-09-03T17:36:41.323Z,99.99
2018-09-03T17:37:40.800Z,99.99
2018-09-03T17:39:34.348Z,99.99
2018-09-03T17:40:34.161Z,99.99
2018-09-03T17:42:27.766Z,99.99
2018-09-03T17:43:27.517Z,99.99
2018-09-03T17:45:20.414Z,99.99
2018-09-03T17:46:20.403Z,99.99
2018-09-03T17:48:14.358Z,99.99
2018-09-03T17:49:13.797Z,99.99
2018-09-03T17:51:06.684Z,99.99
2018-09-03T17:52:06.668Z,99.99
2018-09-03T17:54:00.261Z,99.99
2018-09-03T17:55:02.588Z,99.99
2018-09-03T17:56:53.072Z,99.99
2018-09-03T17:57:52.936Z,99.99
2018-09-03T17:59:46.596Z,99.99
2018-09-03T18:00:46.350Z,99.99
2018-09-03T18:02:40.006Z,99.99
2018-09-03T18:03:39.778Z,99.99
2018-09-03T18:05:32.960Z,99.99
2018-09-03T18:06:32.604Z,99.99
2018-09-03T18:08:26.339Z,99.99
2018-09-03T18:09:25.459Z,99.99
2018-09-03T18:11:18.889Z,99.99
2018-09-03T18:12:18.827Z,99.99
2018-09-03T18:14:12.293Z,99.99
2018-09-03T18:15:12.211Z,99.99
2018-09-03T18:17:05.832Z,99.99
2018-09-03T18:18:06.175Z,99.99
2018-09-03T18:19:59.804Z,99.99
2018-09-03T18:20:58.744Z,99.99
2018-09-03T18:22:52.458Z,99.99
2018-09-03T18:23:52.114Z,99.99
2018-09-03T18:25:46.051Z,99.99
2018-09-03T18:26:45.483Z,99.99
2018-09-03T18:28:39.481Z,99.99
2018-09-03T18:29:39.432Z,99.99
2018-09-03T18:31:32.082Z,99.99
2018-09-03T18:32:31.742Z,99.99
2018-09-03T18:34:25.503Z,99.99
2018-09-03T18:35:25.130Z,99.99
2018-09-03T18:37:18.568Z,99.99
2018-09-03T18:38:18.559Z,99.99
2018-09-03T18:40:12.494Z,99.99
2018-09-03T18:41:11.924Z,99.99
2018-09-03T18:43:05.090Z,99.99
2018-09-03T18:44:04.805Z,99.99